createdAt,value
2022-12-11T00:00:38.278Z,19.25
2022-12-11T00:01:41.132Z,20.58
2022-12-11T00:02:44.461Z,17.52
2022-12-11T00:03:47.966Z,17.58
2022-12-11T00:04:50.799Z,17.13
2022-12-11T00:05:52.678Z,17.73
2022-12-11T00:06:55.533Z,21.20
2022-12-11T00:07:58.110Z,19.65
2022-12-11T00:09:01.023Z,20.58
2022-12-11T00:10:03.404Z,18.73
2022-12-11T00:11:06.765Z,20.40
2022-12-11T00:12:08.729Z,18.08
2022-12-11T00:13:11.586Z,16.95
2022-12-11T00:14:14.116Z,16.95
2022-12-11T00:15:17.286Z,15.98
2022-12-11T00:16:23.730Z,16.48
2022-12-11T00:17:29.445Z,15.90
2022-12-11T00:18:32.659Z,23.88
2022-12-11T00:19:35.553Z,19.95
2022-12-11T00:20:38.096Z,20.15
2022-12-11T00:21:40.918Z,17.23
2022-12-11T00:22:42.729Z,15.50
2022-12-11T00:23:45.775Z,16.42
2022-12-11T00:24:47.604Z,17.50
2022-12-11T00:25:50.415Z,18.23
2022-12-11T00:26:52.535Z,17.00
2022-12-11T00:27:55.644Z,17.08
2022-12-11T00:28:57.615Z,16.60
2022-12-11T00:30:00.559Z,16.90
2022-12-11T00:31:04.811Z,16.25
2022-12-11T00:32:07.972Z,15.23
2022-12-11T00:33:10.577Z,16.08
2022-12-11T00:34:15.000Z,15.93
2022-12-11T00:35:17.056Z,14.93
2022-12-11T00:36:21.550Z,14.73
2022-12-11T00:37:24.612Z,15.32
2022-12-11T00:38:26.483Z,14.65
2022-12-11T00:39:29.284Z,15.77
2022-12-11T00:40:33.656Z,15.20
2022-12-11T00:41:36.385Z,15.15
2022-12-11T00:42:38.181Z,14.63
2022-12-11T00:43:40.974Z,15.88
2022-12-11T00:44:42.782Z,17.33
2022-12-11T00:45:46.967Z,16.52
2022-12-11T00:46:49.734Z,17.38
2022-12-11T00:47:51.518Z,17.35
2022-12-11T00:48:54.375Z,16.52
2022-12-11T00:49:58.547Z,17.52
2022-12-11T00:51:02.032Z,15.07
2022-12-11T00:52:04.866Z,15.98
2022-12-11T00:53:07.378Z,17.55
2022-12-11T00:54:10.135Z,16.73
2022-12-11T00:55:12.169Z,16.23
2022-12-11T00:56:17.097Z,16.35
2022-12-11T00:57:19.914Z,16.15
2022-12-11T00:58:21.955Z,16.25
2022-12-11T00:59:24.720Z,16.77
2022-12-11T01:00:26.831Z,17.45
2022-12-11T01:01:29.611Z,16.52
2022-12-11T01:02:31.550Z,16.02
2022-12-11T01:03:34.470Z,18.17
2022-12-11T01:04:36.546Z,17.42
2022-12-11T01:05:40.647Z,17.08
2022-12-11T01:06:42.534Z,15.80
2022-12-11T01:07:45.350Z,15.48
2022-12-11T01:08:48.905Z,16.88
2022-12-11T01:10:09.524Z,16.98
2022-12-11T01:11:12.715Z,14.85
2022-12-11T01:12:17.757Z,16.92
2022-12-11T01:13:19.721Z,17.45
2022-12-11T01:14:22.537Z,16.50
2022-12-11T01:15:26.212Z,19.52
2022-12-11T01:16:29.130Z,18.23
2022-12-11T01:17:30.946Z,18.67
2022-12-11T01:18:33.666Z,18.90
2022-12-11T01:19:35.501Z,19.35
2022-12-11T01:20:41.369Z,18.90
2022-12-11T01:21:43.161Z,18.98
2022-12-11T01:22:45.957Z,19.63
2022-12-11T01:23:50.090Z,19.23
2022-12-11T01:24:52.823Z,19.45
2022-12-11T01:26:17.575Z,17.63
2022-12-11T01:27:19.406Z,15.45
2022-12-11T01:28:22.266Z,17.75
2022-12-11T01:29:25.043Z,17.10
2022-12-11T01:30:26.909Z,15.80
2022-12-11T01:31:31.096Z,16.30
2022-12-11T01:32:33.205Z,15.27
2022-12-11T01:33:35.981Z,14.20
2022-12-11T01:34:37.806Z,15.63
2022-12-11T01:35:42.202Z,15.10
2022-12-11T01:36:44.035Z,13.98
2022-12-11T01:37:46.821Z,14.20
2022-12-11T01:38:49.324Z,15.13
2022-12-11T01:39:52.260Z,14.35
2022-12-11T01:40:54.020Z,14.18
2022-12-11T01:41:57.908Z,13.80
2022-12-11T01:42:59.799Z,13.25
2022-12-11T01:44:05.950Z,13.77
2022-12-11T01:45:27.561Z,15.43
2022-12-11T01:46:31.746Z,16.02
2022-12-11T01:47:33.559Z,16.83
2022-12-11T01:48:40.778Z,14.32
2022-12-11T01:49:44.060Z,14.73
2022-12-11T01:50:50.491Z,15.32
2022-12-11T01:51:55.123Z,14.10
2022-12-11T01:52:58.065Z,14.60
2022-12-11T01:54:03.316Z,14.57
2022-12-11T01:55:06.235Z,14.70
2022-12-11T01:56:09.518Z,14.63
2022-12-11T01:57:11.875Z,12.70
2022-12-11T01:58:14.786Z,13.68
2022-12-11T01:59:20.255Z,13.60
2022-12-11T02:00:23.204Z,14.35
2022-12-11T02:01:29.807Z,14.05
2022-12-11T02:02:33.827Z,14.00
2022-12-11T02:03:35.723Z,13.18
2022-12-11T02:04:40.181Z,13.43
2022-12-11T02:05:42.025Z,14.00
2022-12-11T02:06:48.084Z,14.25
2022-12-11T02:07:53.076Z,13.85
2022-12-11T02:08:56.039Z,13.57
2022-12-11T02:09:57.855Z,12.95
2022-12-11T02:11:07.592Z,12.68
2022-12-11T02:12:15.469Z,11.82
2022-12-11T02:13:22.857Z,13.73
2022-12-11T02:14:29.354Z,12.73
2022-12-11T02:15:35.736Z,13.38
2022-12-11T02:16:44.956Z,13.73
2022-12-11T02:17:50.062Z,12.10
2022-12-11T02:18:55.854Z,12.85
2022-12-11T02:20:05.486Z,11.65
2022-12-11T02:21:10.206Z,12.13
2022-12-11T02:22:23.658Z,11.27
2022-12-11T02:23:39.255Z,11.20
2022-12-11T02:24:51.324Z,11.40
2022-12-11T02:26:00.850Z,11.35
2022-12-11T02:27:14.690Z,12.00
2022-12-11T02:28:23.498Z,11.02
2022-12-11T02:29:29.583Z,11.00
2022-12-11T02:30:32.763Z,10.77
2022-12-11T02:31:36.627Z,10.45
2022-12-11T02:32:43.505Z,10.35
2022-12-11T02:33:50.513Z,10.68
2022-12-11T02:34:57.239Z,10.98
2022-12-11T02:35:59.410Z,10.20
2022-12-11T02:37:05.408Z,10.43
2022-12-11T02:38:12.423Z,10.30
2022-12-11T02:39:16.685Z,11.73
2022-12-11T02:40:23.964Z,11.02
2022-12-11T02:41:27.442Z,9.68
2022-12-11T02:42:32.455Z,11.77
2022-12-11T02:43:36.964Z,10.35
2022-12-11T02:44:41.147Z,10.95
2022-12-11T02:45:44.317Z,11.68
2022-12-11T02:46:47.533Z,11.88
2022-12-11T02:47:49.589Z,12.30
2022-12-11T02:48:52.887Z,12.23
2022-12-11T02:49:56.154Z,12.75
2022-12-11T02:50:59.885Z,11.82
2022-12-11T02:52:02.992Z,12.88
2022-12-11T02:53:07.631Z,13.02
2022-12-11T02:54:13.837Z,12.85
2022-12-11T02:55:17.901Z,12.82
2022-12-11T02:56:22.779Z,11.80
2022-12-11T02:57:28.991Z,12.95
2022-12-11T02:58:31.793Z,11.85
2022-12-11T02:59:38.431Z,11.50
2022-12-11T03:00:41.212Z,12.15
2022-12-11T03:01:43.433Z,12.10
2022-12-11T03:02:46.755Z,11.57
2022-12-11T03:03:48.718Z,11.32
2022-12-11T03:04:51.549Z,11.60
2022-12-11T03:05:54.177Z,10.88
2022-12-11T03:07:01.481Z,12.55
2022-12-11T03:08:03.708Z,11.23
2022-12-11T03:09:06.997Z,11.25
2022-12-11T03:10:12.170Z,11.50
2022-12-11T03:11:15.013Z,10.98
2022-12-11T03:12:20.017Z,11.90
2022-12-11T03:13:25.349Z,10.60
2022-12-11T03:14:28.332Z,12.20
2022-12-11T03:15:36.133Z,10.88
2022-12-11T03:16:39.103Z,11.02
2022-12-11T03:17:48.522Z,11.15
2022-12-11T03:18:54.945Z,10.48
2022-12-11T03:20:05.713Z,10.60
2022-12-11T03:21:10.443Z,11.07
2022-12-11T03:22:17.781Z,11.15
2022-12-11T03:23:24.735Z,11.40
2022-12-11T03:24:30.876Z,10.73
2022-12-11T03:25:35.947Z,11.25
2022-12-11T03:26:41.005Z,10.57
2022-12-11T03:27:45.591Z,10.52
2022-12-11T03:28:51.757Z,12.20
2022-12-11T03:29:56.149Z,11.60
2022-12-11T03:31:05.385Z,11.48
2022-12-11T03:32:09.335Z,11.18
2022-12-11T03:33:15.529Z,11.75
2022-12-11T03:34:21.425Z,12.77
2022-12-11T03:35:25.476Z,16.23
2022-12-11T03:36:32.030Z,19.63
2022-12-11T03:37:36.772Z,13.25
2022-12-11T03:38:42.661Z,13.38
2022-12-11T03:39:48.228Z,13.10
2022-12-11T03:40:53.435Z,13.18
2022-12-11T03:41:55.918Z,14.32
2022-12-11T03:42:58.982Z,13.35
2022-12-11T03:44:01.150Z,13.65
2022-12-11T03:45:05.852Z,14.85
2022-12-11T03:46:10.198Z,13.80
2022-12-11T03:47:16.983Z,15.40
2022-12-11T03:48:19.119Z,14.60
2022-12-11T03:49:23.937Z,14.15
2022-12-11T03:50:28.945Z,14.45
2022-12-11T03:51:33.518Z,12.88
2022-12-11T03:52:38.569Z,14.00
2022-12-11T03:53:45.924Z,14.32
2022-12-11T03:54:49.847Z,16.40
2022-12-11T03:55:52.791Z,13.68
2022-12-11T03:56:56.621Z,14.25
2022-12-11T03:57:59.367Z,15.35
2022-12-11T03:59:01.121Z,15.90
2022-12-11T04:00:04.993Z,13.77
2022-12-11T04:01:15.022Z,14.40
2022-12-11T04:02:17.945Z,14.27
2022-12-11T04:03:19.947Z,15.00
2022-12-11T04:04:22.786Z,12.85
2022-12-11T04:05:24.550Z,12.85
2022-12-11T04:06:27.282Z,13.93
2022-12-11T04:07:29.101Z,13.52
2022-12-11T04:08:31.948Z,13.10
2022-12-11T04:09:33.893Z,14.07
2022-12-11T04:10:36.770Z,14.95
2022-12-11T04:11:39.516Z,13.73
2022-12-11T04:12:42.282Z,14.60
2022-12-11T04:13:44.116Z,14.23
2022-12-11T04:15:04.249Z,14.52
2022-12-11T04:16:07.853Z,13.57
2022-12-11T04:17:11.010Z,14.60
2022-12-11T04:18:31.205Z,13.43
2022-12-11T04:19:51.425Z,14.48
2022-12-11T04:21:12.141Z,12.57
2022-12-11T04:22:35.957Z,12.27
2022-12-11T04:23:56.588Z,12.00
2022-12-11T04:24:59.303Z,12.25
2022-12-11T04:26:04.776Z,13.30
2022-12-11T04:27:07.682Z,13.88
2022-12-11T04:28:09.489Z,14.23
2022-12-11T04:29:12.458Z,13.02
2022-12-11T04:30:16.678Z,14.40
2022-12-11T04:31:22.347Z,13.55
2022-12-11T04:32:25.578Z,13.68
2022-12-11T04:33:28.630Z,14.27
2022-12-11T04:34:30.489Z,13.60
2022-12-11T04:35:33.285Z,14.05
2022-12-11T04:36:35.750Z,13.57
2022-12-11T04:37:38.929Z,13.73
2022-12-11T04:38:40.742Z,13.18
2022-12-11T04:39:43.448Z,13.30
2022-12-11T04:40:45.235Z,13.45
2022-12-11T04:41:47.969Z,13.18
2022-12-11T04:42:49.775Z,13.20
2022-12-11T04:43:52.543Z,14.20
2022-12-11T04:44:54.268Z,14.05
2022-12-11T04:46:04.354Z,14.07
2022-12-11T04:47:06.320Z,13.40
2022-12-11T04:48:10.397Z,13.90
2022-12-11T04:49:12.586Z,14.05
2022-12-11T04:50:16.674Z,14.02
2022-12-11T04:51:18.807Z,15.00
2022-12-11T04:52:21.574Z,13.90
2022-12-11T04:53:23.424Z,15.00
2022-12-11T04:54:26.331Z,15.45
2022-12-11T04:55:28.104Z,13.98
2022-12-11T04:56:30.911Z,14.73
2022-12-11T04:57:32.706Z,14.52
2022-12-11T04:58:36.744Z,14.73
2022-12-11T04:59:38.802Z,14.82
2022-12-11T05:00:42.100Z,14.75
2022-12-11T05:01:43.947Z,15.32
2022-12-11T05:02:46.879Z,15.00
2022-12-11T05:03:50.346Z,15.48
2022-12-11T05:04:53.575Z,15.85
2022-12-11T05:05:55.335Z,13.98
2022-12-11T05:06:58.033Z,15.45
2022-12-11T05:07:59.825Z,15.55
2022-12-11T05:09:02.553Z,14.60
2022-12-11T05:10:05.388Z,15.85
2022-12-11T05:11:10.767Z,15.00
2022-12-11T05:12:12.496Z,16.70
2022-12-11T05:13:15.458Z,16.08
2022-12-11T05:14:17.306Z,14.80
2022-12-11T05:15:20.044Z,14.93
2022-12-11T05:16:21.879Z,14.90
2022-12-11T05:17:24.667Z,14.23
2022-12-11T05:18:26.602Z,14.57
2022-12-11T05:19:30.683Z,14.30
2022-12-11T05:20:32.656Z,15.05
2022-12-11T05:21:35.503Z,14.45
2022-12-11T05:22:37.851Z,14.55
2022-12-11T05:23:41.242Z,15.90
2022-12-11T05:24:43.166Z,13.40
2022-12-11T05:25:52.868Z,13.57
2022-12-11T05:26:54.619Z,12.50
2022-12-11T05:27:57.332Z,12.65
2022-12-11T05:28:59.114Z,13.98
2022-12-11T05:30:01.859Z,14.40
2022-12-11T05:31:06.490Z,14.05
2022-12-11T05:32:09.315Z,14.00
2022-12-11T05:33:11.077Z,13.02
2022-12-11T05:34:15.156Z,13.43
2022-12-11T05:35:18.341Z,13.07
2022-12-11T05:36:23.009Z,12.88
2022-12-11T05:37:24.759Z,13.88
2022-12-11T05:38:27.849Z,14.13
2022-12-11T05:39:30.899Z,12.00
2022-12-11T05:40:32.646Z,13.43
2022-12-11T05:41:35.376Z,12.45
2022-12-11T05:42:37.143Z,13.23
2022-12-11T05:43:39.876Z,13.52
2022-12-11T05:44:41.626Z,12.70
2022-12-11T05:45:44.376Z,13.68
2022-12-11T05:46:47.212Z,14.00
2022-12-11T05:47:49.038Z,13.38
2022-12-11T05:48:54.010Z,13.38
2022-12-11T05:49:55.830Z,14.93
2022-12-11T05:51:00.857Z,13.07
2022-12-11T05:52:02.652Z,14.68
2022-12-11T05:53:05.658Z,13.30
2022-12-11T05:54:07.529Z,13.55
2022-12-11T05:55:10.809Z,13.23
2022-12-11T05:56:14.554Z,13.23
2022-12-11T05:57:17.339Z,13.18
2022-12-11T05:58:19.134Z,12.93
2022-12-11T05:59:21.901Z,13.38
2022-12-11T06:00:23.704Z,13.68
2022-12-11T06:01:28.142Z,12.45
2022-12-11T06:02:30.142Z,13.63
2022-12-11T06:03:33.049Z,13.20
2022-12-11T06:04:34.765Z,13.38
2022-12-11T06:05:38.755Z,13.52
2022-12-11T06:06:43.959Z,13.25
2022-12-11T06:07:45.846Z,13.77
2022-12-11T06:08:50.818Z,13.30
2022-12-11T06:09:52.584Z,13.48
2022-12-11T06:10:55.329Z,13.45
2022-12-11T06:11:57.087Z,12.80
2022-12-11T06:12:59.839Z,13.27
2022-12-11T06:14:02.319Z,13.73
2022-12-11T06:15:05.644Z,13.90
2022-12-11T06:16:08.636Z,13.18
2022-12-11T06:17:11.464Z,14.30
2022-12-11T06:18:13.208Z,13.38
2022-12-11T06:19:17.450Z,13.88
2022-12-11T06:20:19.251Z,13.30
2022-12-11T06:21:24.014Z,13.15
2022-12-11T06:22:27.172Z,12.80
2022-12-11T06:23:29.894Z,13.20
2022-12-11T06:24:32.257Z,13.15
2022-12-11T06:25:35.379Z,12.70
2022-12-11T06:26:37.132Z,13.10
2022-12-11T06:27:39.904Z,13.27
2022-12-11T06:28:41.678Z,12.68
2022-12-11T06:29:44.459Z,13.05
2022-12-11T06:30:46.240Z,12.40
2022-12-11T06:31:49.046Z,12.05
2022-12-11T06:32:50.972Z,12.23
2022-12-11T06:33:54.230Z,11.93
2022-12-11T06:34:56.059Z,12.00
2022-12-11T06:36:03.017Z,12.75
2022-12-11T06:37:05.790Z,12.63
2022-12-11T06:38:08.983Z,12.32
2022-12-11T06:39:12.233Z,12.23
2022-12-11T06:40:14.092Z,12.25
2022-12-11T06:41:17.347Z,11.25
2022-12-11T06:42:19.145Z,12.68
2022-12-11T06:43:21.905Z,12.07
2022-12-11T06:44:24.845Z,11.75
2022-12-11T06:45:27.778Z,11.23
2022-12-11T06:46:29.625Z,11.15
2022-12-11T06:47:33.134Z,11.88
2022-12-11T06:48:35.020Z,11.40
2022-12-11T06:49:37.740Z,12.48
2022-12-11T06:50:39.523Z,13.32
2022-12-11T06:51:42.314Z,11.63
2022-12-11T06:52:44.050Z,12.05
2022-12-11T06:53:52.442Z,12.00
2022-12-11T06:54:54.663Z,11.80
2022-12-11T06:55:57.407Z,12.02
2022-12-11T06:56:59.217Z,13.43
2022-12-11T06:58:01.925Z,13.73
2022-12-11T06:59:07.354Z,12.40
2022-12-11T07:00:11.721Z,12.45
2022-12-11T07:01:19.251Z,11.70
2022-12-11T07:02:21.345Z,13.10
2022-12-11T07:03:24.149Z,12.98
2022-12-11T07:04:27.404Z,14.55
2022-12-11T07:05:30.141Z,13.35
2022-12-11T07:06:31.890Z,13.45
2022-12-11T07:07:34.963Z,14.02
2022-12-11T07:08:36.849Z,13.40
2022-12-11T07:09:41.704Z,14.95
2022-12-11T07:10:43.608Z,13.80
2022-12-11T07:11:46.410Z,14.77
2022-12-11T07:12:49.133Z,12.00
2022-12-11T07:13:52.199Z,13.52
2022-12-11T07:14:54.194Z,14.45
2022-12-11T07:15:58.972Z,13.23
2022-12-11T07:17:01.896Z,12.77
2022-12-11T07:18:04.157Z,11.85
2022-12-11T07:19:06.893Z,14.00
2022-12-11T07:20:10.201Z,13.80
2022-12-11T07:21:13.715Z,14.38
2022-12-11T07:22:15.621Z,13.25
2022-12-11T07:23:18.424Z,14.77
2022-12-11T07:24:20.542Z,13.70
2022-12-11T07:25:24.806Z,13.55
2022-12-11T07:26:28.235Z,14.98
2022-12-11T07:27:31.092Z,13.90
2022-12-11T07:28:33.030Z,14.15
2022-12-11T07:29:36.010Z,15.43
2022-12-11T07:30:38.303Z,15.20
2022-12-11T07:31:41.291Z,17.50
2022-12-11T07:32:43.153Z,17.05
2022-12-11T07:33:46.341Z,16.02
2022-12-11T07:34:51.744Z,17.65
2022-12-11T07:35:55.019Z,19.17
2022-12-11T07:36:56.930Z,16.60
2022-12-11T07:37:59.815Z,18.08
2022-12-11T07:39:02.065Z,20.88
2022-12-11T07:40:05.478Z,22.52
2022-12-11T07:41:11.134Z,18.48
2022-12-11T07:42:14.147Z,17.52
2022-12-11T07:43:17.272Z,17.00
2022-12-11T07:44:19.439Z,16.65
2022-12-11T07:45:22.455Z,17.13
2022-12-11T07:46:25.997Z,16.67
2022-12-11T07:47:28.711Z,19.10
2022-12-11T07:48:30.997Z,17.48
2022-12-11T07:49:33.812Z,18.83
2022-12-11T07:50:39.731Z,16.10
2022-12-11T07:51:42.831Z,15.27
2022-12-11T07:52:45.637Z,21.40
2022-12-11T07:53:49.277Z,15.35
2022-12-11T07:54:52.061Z,21.40
2022-12-11T07:55:54.776Z,23.15
2022-12-11T07:56:57.882Z,19.85
2022-12-11T07:58:00.691Z,16.67
2022-12-11T07:59:04.048Z,21.45
2022-12-11T08:00:08.407Z,18.20
2022-12-11T08:01:16.562Z,26.20
2022-12-11T08:02:19.773Z,19.27
2022-12-11T08:03:21.759Z,17.90
2022-12-11T08:04:24.535Z,17.73
2022-12-11T08:05:27.584Z,17.98
2022-12-11T08:06:30.833Z,20.63
2022-12-11T08:07:35.721Z,14.10
2022-12-11T08:08:37.767Z,16.55
2022-12-11T08:09:40.815Z,30.85
2022-12-11T08:10:44.244Z,29.42
2022-12-11T08:11:45.974Z,21.98
2022-12-11T08:12:50.081Z,18.65
2022-12-11T08:13:51.961Z,25.20
2022-12-11T08:14:54.718Z,29.88
2022-12-11T08:15:56.512Z,22.70
2022-12-11T08:17:00.230Z,16.65
2022-12-11T08:18:02.105Z,15.88
2022-12-11T08:19:04.834Z,16.70
2022-12-11T08:20:09.285Z,24.45
2022-12-11T08:21:12.509Z,18.00
2022-12-11T08:22:15.371Z,20.55
2022-12-11T08:23:17.113Z,17.30
2022-12-11T08:24:20.862Z,17.75
2022-12-11T08:25:22.709Z,25.52
2022-12-11T08:26:27.698Z,19.75
2022-12-11T08:27:29.665Z,28.05
2022-12-11T08:28:34.665Z,18.80
2022-12-11T08:29:37.253Z,21.58
2022-12-11T08:30:41.177Z,26.35
2022-12-11T08:31:43.335Z,16.80
2022-12-11T08:32:46.398Z,20.10
2022-12-11T08:33:48.727Z,24.95
2022-12-11T08:34:52.331Z,24.92
2022-12-11T08:35:54.310Z,24.40
2022-12-11T08:36:57.251Z,27.35
2022-12-11T08:37:59.566Z,18.17
2022-12-11T08:39:02.494Z,18.48
2022-12-11T08:40:05.496Z,35.40
2022-12-11T08:41:13.039Z,31.40
2022-12-11T08:42:15.418Z,21.58
2022-12-11T08:43:19.070Z,20.45
2022-12-11T08:44:25.055Z,19.35
2022-12-11T08:45:27.653Z,16.70
2022-12-11T08:46:32.012Z,16.42
2022-12-11T08:47:33.870Z,20.23
2022-12-11T08:48:38.240Z,21.48
2022-12-11T08:49:41.561Z,24.42
2022-12-11T08:50:44.730Z,17.15
2022-12-11T08:51:49.307Z,18.95
2022-12-11T08:52:51.560Z,20.00
2022-12-11T08:53:56.451Z,16.38
2022-12-11T08:54:58.752Z,17.95
2022-12-11T08:56:02.758Z,14.75
2022-12-11T08:57:06.124Z,15.05
2022-12-11T08:58:08.044Z,15.88
2022-12-11T08:59:11.960Z,16.48
2022-12-11T09:00:17.141Z,14.80
2022-12-11T09:01:21.677Z,15.63
2022-12-11T09:02:25.242Z,15.80
2022-12-11T09:03:27.188Z,16.13
2022-12-11T09:04:30.147Z,15.98
2022-12-11T09:05:31.944Z,16.52
2022-12-11T09:06:34.885Z,14.20
2022-12-11T09:07:37.735Z,16.33
2022-12-11T09:08:41.009Z,13.40
2022-12-11T09:09:43.756Z,14.65
2022-12-11T09:10:45.562Z,14.13
2022-12-11T09:11:49.615Z,16.58
2022-12-11T09:12:51.346Z,14.60
2022-12-11T09:13:54.939Z,13.55
2022-12-11T09:14:56.951Z,16.98
2022-12-11T09:16:01.325Z,13.35
2022-12-11T09:17:05.351Z,16.60
2022-12-11T09:18:08.233Z,13.70
2022-12-11T09:19:13.750Z,13.13
2022-12-11T09:20:16.504Z,13.60
2022-12-11T09:21:22.461Z,15.07
2022-12-11T09:22:25.410Z,15.52
2022-12-11T09:23:27.756Z,14.00
2022-12-11T09:24:30.880Z,14.32
2022-12-11T09:25:33.948Z,13.85
2022-12-11T09:26:36.039Z,14.77
2022-12-11T09:27:38.810Z,16.50
2022-12-11T09:28:45.962Z,16.05
2022-12-11T09:29:49.836Z,13.50
2022-12-11T09:30:51.870Z,16.42
2022-12-11T09:31:56.414Z,22.20
2022-12-11T09:32:58.415Z,26.92
2022-12-11T09:34:02.714Z,21.25
2022-12-11T09:35:06.490Z,14.25
2022-12-11T09:36:09.747Z,14.95
2022-12-11T09:37:12.866Z,25.10
2022-12-11T09:38:14.657Z,22.15
2022-12-11T09:39:18.868Z,22.13
2022-12-11T09:40:21.891Z,14.13
2022-12-11T09:41:40.502Z,18.58
2022-12-11T09:42:51.652Z,16.23
2022-12-11T09:44:01.726Z,15.15
2022-12-11T09:45:06.986Z,14.90
2022-12-11T09:46:12.020Z,14.15
2022-12-11T09:47:23.101Z,13.18
2022-12-11T09:48:27.273Z,14.20
2022-12-11T09:49:36.907Z,14.32
2022-12-11T09:50:40.920Z,14.02
2022-12-11T09:51:45.993Z,14.18
2022-12-11T09:52:57.253Z,14.35
2022-12-11T09:54:01.622Z,12.95
2022-12-11T09:55:13.044Z,14.20
2022-12-11T09:56:19.682Z,13.95
2022-12-11T09:57:33.642Z,14.23
2022-12-11T09:58:41.169Z,13.73
2022-12-11T10:00:02.691Z,15.52
2022-12-11T10:01:12.008Z,14.43
2022-12-11T10:02:26.970Z,13.85
2022-12-11T10:03:44.797Z,12.43
2022-12-11T10:04:52.579Z,12.35
2022-12-11T10:06:04.581Z,12.20
2022-12-11T10:07:13.234Z,11.77
2022-12-11T10:08:19.960Z,12.27
2022-12-11T10:09:27.822Z,11.85
2022-12-11T10:10:37.134Z,13.40
2022-12-11T10:12:00.183Z,12.10
2022-12-11T10:13:07.918Z,11.35
2022-12-11T10:14:15.415Z,12.98
2022-12-11T10:15:27.393Z,13.40
2022-12-11T10:16:38.161Z,11.35
2022-12-11T10:17:44.566Z,11.65
2022-12-11T10:18:47.754Z,12.20
2022-12-11T10:19:50.881Z,12.48
2022-12-11T10:20:54.346Z,12.15
2022-12-11T10:21:57.907Z,10.50
2022-12-11T10:23:00.946Z,11.52
2022-12-11T10:24:06.181Z,10.77
2022-12-11T10:25:17.618Z,11.50
2022-12-11T10:26:20.700Z,10.77
2022-12-11T10:27:26.596Z,10.95
2022-12-11T10:28:29.981Z,10.65
2022-12-11T10:29:31.761Z,10.40
2022-12-11T10:30:38.515Z,10.88
2022-12-11T10:31:46.717Z,10.68
2022-12-11T10:32:56.000Z,10.82
2022-12-11T10:34:01.856Z,10.55
2022-12-11T10:35:05.961Z,10.38
2022-12-11T10:36:09.523Z,10.23
2022-12-11T10:37:12.678Z,10.90
2022-12-11T10:38:16.779Z,11.10
2022-12-11T10:39:22.033Z,11.02
2022-12-11T10:40:24.753Z,11.68
2022-12-11T10:41:36.729Z,10.43
2022-12-11T10:42:44.165Z,10.48
2022-12-11T10:43:50.756Z,10.48
2022-12-11T10:44:57.472Z,10.77
2022-12-11T10:46:00.254Z,10.60
2022-12-11T10:47:04.452Z,10.75
2022-12-11T10:48:12.476Z,11.20
2022-12-11T10:49:24.520Z,9.80
2022-12-11T10:50:27.698Z,10.13
2022-12-11T10:51:36.095Z,9.23
2022-12-11T10:52:43.599Z,10.73
2022-12-11T10:53:51.167Z,9.55
2022-12-11T10:54:59.816Z,10.45
2022-12-11T10:56:03.398Z,9.75
2022-12-11T10:57:08.525Z,9.95
2022-12-11T10:58:18.718Z,10.68
2022-12-11T10:59:25.629Z,11.38
2022-12-11T11:00:34.616Z,10.80
2022-12-11T11:01:40.348Z,10.63
2022-12-11T11:02:45.612Z,10.77
2022-12-11T11:04:01.346Z,9.80
2022-12-11T11:05:12.889Z,25.52
2022-12-11T11:06:18.385Z,28.65
2022-12-11T11:07:23.815Z,15.82
2022-12-11T11:08:27.883Z,18.30
2022-12-11T11:09:32.972Z,11.35
2022-12-11T11:10:34.975Z,11.73
2022-12-11T11:11:39.399Z,25.67
2022-12-11T11:12:42.663Z,16.65
2022-12-11T11:13:45.823Z,11.48
2022-12-11T11:14:48.595Z,12.50
2022-12-11T11:15:50.946Z,15.90
2022-12-11T11:16:56.798Z,13.05
2022-12-11T11:18:15.602Z,18.88
2022-12-11T11:19:23.035Z,15.55
2022-12-11T11:20:26.232Z,11.90
2022-12-11T11:21:30.274Z,9.95
2022-12-11T11:22:33.413Z,11.38
2022-12-11T11:23:39.838Z,11.20
2022-12-11T11:24:47.650Z,10.85
2022-12-11T11:25:50.776Z,11.65
2022-12-11T11:27:12.851Z,11.57
2022-12-11T11:28:19.546Z,10.98
2022-12-11T11:29:28.033Z,10.77
2022-12-11T11:30:33.776Z,10.25
2022-12-11T11:31:37.202Z,11.35
2022-12-11T11:32:40.036Z,11.27
2022-12-11T11:33:50.483Z,11.40
2022-12-11T11:34:54.704Z,11.70
2022-12-11T11:35:58.328Z,11.23
2022-12-11T11:37:05.577Z,12.98
2022-12-11T11:38:17.151Z,12.05
2022-12-11T11:39:24.601Z,11.75
2022-12-11T11:40:30.371Z,13.40
2022-12-11T11:41:38.943Z,13.32
2022-12-11T11:42:46.834Z,14.00
2022-12-11T11:43:51.826Z,12.90
2022-12-11T11:45:02.120Z,12.13
2022-12-11T11:46:07.655Z,12.40
2022-12-11T11:47:13.862Z,12.30
2022-12-11T11:48:26.211Z,12.70
2022-12-11T11:49:37.523Z,12.40
2022-12-11T11:50:46.216Z,14.07
2022-12-11T11:51:51.839Z,13.32
2022-12-11T11:53:01.690Z,14.45
2022-12-11T11:54:10.614Z,12.85
2022-12-11T11:55:21.655Z,12.75
2022-12-11T11:56:28.086Z,12.52
2022-12-11T11:57:36.774Z,12.55
2022-12-11T11:58:43.070Z,12.68
2022-12-11T11:59:49.360Z,12.98
2022-12-11T12:00:53.998Z,12.90
2022-12-11T12:01:57.837Z,13.20
2022-12-11T12:03:02.653Z,12.85
2022-12-11T12:04:06.441Z,12.90
2022-12-11T12:05:12.555Z,13.05
2022-12-11T12:06:24.642Z,11.73
2022-12-11T12:07:34.001Z,12.73
2022-12-11T12:08:42.687Z,11.95
2022-12-11T12:09:51.980Z,13.15
2022-12-11T12:10:58.510Z,13.45
2022-12-11T12:12:18.169Z,13.05
2022-12-11T12:15:03.366Z,13.35
2022-12-11T12:16:36.274Z,12.90
2022-12-11T12:17:48.180Z,14.75
2022-12-11T12:19:04.744Z,14.52
2022-12-11T12:20:15.920Z,14.48
2022-12-11T12:21:26.643Z,13.20
2022-12-11T12:22:39.291Z,12.75
2022-12-11T12:24:00.381Z,12.40
2022-12-11T12:25:10.929Z,14.95
2022-12-11T12:26:20.217Z,13.43
2022-12-11T12:28:53.838Z,13.05
2022-12-11T12:30:05.229Z,14.05
2022-12-11T12:31:18.458Z,15.73
2022-12-11T12:32:25.942Z,14.10
2022-12-11T12:33:39.151Z,14.15
2022-12-11T12:35:03.120Z,16.17
2022-12-11T12:36:14.686Z,15.40
2022-12-11T12:37:26.080Z,14.52
2022-12-11T12:38:41.175Z,15.10
2022-12-11T12:39:49.156Z,14.07
2022-12-11T12:40:59.040Z,14.95
2022-12-11T12:42:09.041Z,15.38
2022-12-11T12:43:40.475Z,15.95
2022-12-11T12:44:50.213Z,14.13
2022-12-11T12:46:01.057Z,15.00
2022-12-11T12:47:06.430Z,16.13
2022-12-11T12:48:10.141Z,15.98
2022-12-11T12:49:16.841Z,15.35
2022-12-11T12:50:22.050Z,15.75
2022-12-11T12:51:24.941Z,16.25
2022-12-11T12:52:32.613Z,15.43
2022-12-11T12:53:38.162Z,14.02
2022-12-11T12:54:42.323Z,14.93
2022-12-11T12:55:44.804Z,16.20
2022-12-11T12:56:48.331Z,14.88
2022-12-11T12:57:52.829Z,17.33
2022-12-11T12:58:55.813Z,16.25
2022-12-11T12:59:57.686Z,15.15
2022-12-11T13:01:08.650Z,16.70
2022-12-11T13:02:14.611Z,14.50
2022-12-11T13:03:20.225Z,14.30
2022-12-11T13:04:56.845Z,15.27
2022-12-11T13:06:00.822Z,13.60
2022-12-11T13:07:12.945Z,15.02
2022-12-11T13:08:25.691Z,14.02
2022-12-11T13:09:28.466Z,14.70
2022-12-11T13:10:33.487Z,13.43
2022-12-11T13:11:36.437Z,13.70
2022-12-11T13:12:44.763Z,15.13
2022-12-11T13:13:54.939Z,13.32
2022-12-11T13:14:57.724Z,14.20
2022-12-11T13:16:26.366Z,14.57
2022-12-11T13:17:37.164Z,13.38
2022-12-11T13:18:40.838Z,12.50
2022-12-11T13:19:42.999Z,13.60
2022-12-11T13:20:51.052Z,14.85
2022-12-11T13:21:58.024Z,13.00
2022-12-11T13:23:18.719Z,13.98
2022-12-11T13:24:27.484Z,14.18
2022-12-11T13:25:31.571Z,15.20
2022-12-11T13:26:35.058Z,14.18
2022-12-11T13:27:38.786Z,14.60
2022-12-11T13:28:51.653Z,15.93
2022-12-11T13:30:06.407Z,14.23
2022-12-11T13:31:29.995Z,14.15
2022-12-11T13:32:33.661Z,14.25
2022-12-11T13:33:41.608Z,15.93
2022-12-11T13:34:48.542Z,15.40
2022-12-11T13:36:19.003Z,15.05
2022-12-11T13:37:28.497Z,13.80
2022-12-11T13:38:31.746Z,14.40
2022-12-11T13:39:36.260Z,15.80
2022-12-11T13:40:40.189Z,14.88
2022-12-11T13:41:46.079Z,14.48
2022-12-11T13:42:50.927Z,15.05
2022-12-11T13:43:53.811Z,14.52
2022-12-11T13:44:56.908Z,15.77
2022-12-11T13:46:02.073Z,15.55
2022-12-11T13:47:05.101Z,15.52
2022-12-11T13:48:23.048Z,15.77
2022-12-11T13:49:27.801Z,14.30
2022-12-11T13:50:33.066Z,15.32
2022-12-11T13:51:37.350Z,15.30
2022-12-11T13:52:40.563Z,15.70
2022-12-11T13:53:43.806Z,14.63
2022-12-11T13:54:51.871Z,15.57
2022-12-11T13:55:57.777Z,15.73
2022-12-11T13:57:03.181Z,14.60
2022-12-11T13:58:16.110Z,17.33
2022-12-11T13:59:27.058Z,15.40
2022-12-11T14:00:32.927Z,15.77
2022-12-11T14:01:35.761Z,15.50